Terminal Aerodrome Forecast
Issued by NWS

Home | Current Version | Previous Version | Text Only | Print | Product List | Glossary On
Versions: 1 2 3 4 5 6 7 8 9 10 11 12 13 14 15 16 17
000
FTUS46 KOTX 252320
TAFCOE
TAF
KCOE 252320Z 2600/2624 03014G20KT P6SM VCSH SCT040 BKN080 OVC120
     FM260100 09015G22KT P6SM -SHRA SCT030 BKN050 OVC070
     FM260700 22020G30KT P6SM -RA OVC035
     FM261000 22024G36KT P6SM BKN050
     FM261500 22016KT P6SM SCT050 BKN100
     FM261800 23020G30KT P6SM -SHRA SCT025 BKN035 OVC050
      AMD LTD TO CLD AND VIS=

USA.gov is the U.S. government's official web portal to all federal, state and local government web resources and services.